createdAt,value
2023-04-21T00:00:52.711Z,82.56
2023-04-21T00:03:22.686Z,82.46
2023-04-21T00:05:51.311Z,82.56
2023-04-21T00:08:19.428Z,82.36
2023-04-21T00:10:49.390Z,82.66
2023-04-21T00:13:16.657Z,83.04
2023-04-21T00:15:44.743Z,83.22
2023-04-21T00:18:13.610Z,82.84
2023-04-21T00:20:40.714Z,83.01
2023-04-21T00:23:07.902Z,82.99
2023-04-21T00:25:35.801Z,82.84
2023-04-21T00:28:03.831Z,82.85
2023-04-21T00:30:31.128Z,82.58
2023-04-21T00:32:58.441Z,82.44
2023-04-21T00:35:26.211Z,81.99
2023-04-21T00:37:54.779Z,81.74
2023-04-21T00:40:22.035Z,81.68
2023-04-21T00:42:49.208Z,81.17
2023-04-21T00:45:16.476Z,81.22
2023-04-21T00:47:43.970Z,80.76
2023-04-21T00:50:12.679Z,80.26
2023-04-21T00:52:41.092Z,80.51
2023-04-21T00:55:09.294Z,80.22
2023-04-21T00:57:40.257Z,79.89
2023-04-21T01:00:09.117Z,79.44
2023-04-21T01:02:39.829Z,79.29
2023-04-21T01:05:10.582Z,79.10
2023-04-21T01:07:39.273Z,78.95
2023-04-21T01:10:07.057Z,79.43
2023-04-21T01:12:35.718Z,78.72
2023-04-21T01:15:03.004Z,78.38
2023-04-21T01:17:31.569Z,78.41
2023-04-21T01:20:02.196Z,77.79
2023-04-21T01:22:32.138Z,77.42
2023-04-21T01:24:59.463Z,77.52
2023-04-21T01:27:27.070Z,77.12
2023-04-21T01:29:54.480Z,77.66
2023-04-21T01:32:25.683Z,77.31
2023-04-21T01:34:54.535Z,76.66
2023-04-21T01:37:26.760Z,77.09
2023-04-21T01:39:57.392Z,77.36
2023-04-21T01:42:26.134Z,77.39
2023-04-21T01:44:54.115Z,77.92
2023-04-21T01:47:22.736Z,78.59
2023-04-21T01:49:50.007Z,78.72
2023-04-21T01:52:17.298Z,78.92
2023-04-21T01:54:46.236Z,79.32
2023-04-21T01:57:15.829Z,79.63
2023-04-21T01:59:44.379Z,79.88
2023-04-21T02:02:12.103Z,80.09
2023-04-21T02:04:39.476Z,80.78
2023-04-21T02:07:07.232Z,80.55
2023-04-21T02:09:34.509Z,81.17
2023-04-21T02:12:02.478Z,81.08
2023-04-21T02:14:30.423Z,81.06
2023-04-21T02:16:57.886Z,80.91
2023-04-21T02:19:25.688Z,80.81
2023-04-21T02:21:55.210Z,81.07
2023-04-21T02:24:22.804Z,81.05
2023-04-21T02:26:50.141Z,80.61
2023-04-21T02:29:17.500Z,80.94
2023-04-21T02:31:57.803Z,80.60
2023-04-21T02:34:31.216Z,80.99
2023-04-21T02:36:59.517Z,80.83
2023-04-21T02:39:26.907Z,80.97
2023-04-21T02:41:54.043Z,81.29
2023-04-21T02:44:21.600Z,81.50
2023-04-21T02:46:48.725Z,81.12
2023-04-21T02:49:15.865Z,80.71
2023-04-21T02:51:43.146Z,79.92
2023-04-21T02:54:11.116Z,78.82
2023-04-21T02:56:38.405Z,78.56
2023-04-21T02:59:06.998Z,77.95
2023-04-21T03:01:34.081Z,77.17
2023-04-21T03:04:01.609Z,76.87
2023-04-21T03:06:29.003Z,76.28
2023-04-21T03:08:56.794Z,76.62
2023-04-21T03:11:24.330Z,75.62
2023-04-21T03:13:53.784Z,75.54
2023-04-21T03:16:21.301Z,75.85
2023-04-21T03:18:48.451Z,75.53
2023-04-21T03:21:15.950Z,75.32
2023-04-21T03:23:43.205Z,75.26
2023-04-21T03:26:10.493Z,75.19
2023-04-21T03:28:37.700Z,74.67
2023-04-21T03:31:04.898Z,73.94
2023-04-21T03:33:32.695Z,73.74
2023-04-21T03:35:59.781Z,74.21
2023-04-21T03:38:30.155Z,74.38
2023-04-21T03:40:57.501Z,74.36
2023-04-21T03:43:24.575Z,74.71
2023-04-21T03:45:52.295Z,75.41
2023-04-21T03:48:19.617Z,75.57
2023-04-21T03:50:46.992Z,75.19
2023-04-21T03:53:14.281Z,74.94
2023-04-21T03:55:41.458Z,74.81
2023-04-21T03:58:08.749Z,74.64
2023-04-21T04:00:35.931Z,74.27
2023-04-21T04:03:03.409Z,73.75
2023-04-21T04:05:31.205Z,74.31
2023-04-21T04:07:58.512Z,74.44
2023-04-21T04:10:25.767Z,74.95
2023-04-21T04:12:53.521Z,74.63
2023-04-21T04:15:20.667Z,74.42
2023-04-21T04:17:47.965Z,73.72
2023-04-21T04:20:15.331Z,74.21
2023-04-21T04:22:42.551Z,74.16
2023-04-21T04:25:09.836Z,74.12
2023-04-21T04:27:37.796Z,73.51
2023-04-21T04:30:06.054Z,73.32
2023-04-21T04:32:34.239Z,73.03
2023-04-21T04:35:01.421Z,73.62
2023-04-21T04:37:32.024Z,73.56
2023-04-21T04:39:59.730Z,73.16
2023-04-21T04:42:26.939Z,73.08
2023-04-21T04:44:54.597Z,73.77
2023-04-21T04:47:21.995Z,73.84
2023-04-21T04:49:49.345Z,73.73
2023-04-21T04:52:16.517Z,73.91
2023-04-21T04:54:43.684Z,74.26
2023-04-21T04:57:10.903Z,74.83
2023-04-21T04:59:37.981Z,74.28
2023-04-21T05:02:05.319Z,74.47
2023-04-21T05:04:34.385Z,74.31
2023-04-21T05:07:01.700Z,74.76
2023-04-21T05:09:28.885Z,74.27
2023-04-21T05:11:56.610Z,74.81
2023-04-21T05:14:23.710Z,74.54
2023-04-21T05:16:50.950Z,73.99
2023-04-21T05:19:18.903Z,73.48
2023-04-21T05:21:46.230Z,74.41
2023-04-21T05:24:13.806Z,74.06
2023-04-21T05:26:41.067Z,74.70
2023-04-21T05:29:08.182Z,74.42
2023-04-21T05:31:35.565Z,73.96
2023-04-21T05:34:02.802Z,73.60
2023-04-21T05:36:30.598Z,74.00
2023-04-21T05:38:57.899Z,73.27
2023-04-21T05:41:25.059Z,72.31
2023-04-21T05:43:52.226Z,72.58
2023-04-21T05:46:19.536Z,73.14
2023-04-21T05:48:46.692Z,73.18
2023-04-21T05:51:17.936Z,72.99
2023-04-21T05:53:46.092Z,73.64
2023-04-21T05:56:14.015Z,73.30
2023-04-21T05:58:41.901Z,72.92
2023-04-21T06:01:09.190Z,72.44
2023-04-21T06:03:36.886Z,72.12
2023-04-21T06:06:06.521Z,72.27
2023-04-21T06:08:33.715Z,71.72
2023-04-21T06:11:00.948Z,71.95
2023-04-21T06:13:28.150Z,72.20
2023-04-21T06:15:55.678Z,72.17
2023-04-21T06:18:24.155Z,72.77
2023-04-21T06:20:54.715Z,72.80
2023-04-21T06:23:22.396Z,72.64
2023-04-21T06:26:06.937Z,71.79
2023-04-21T06:28:35.962Z,71.06
2023-04-21T06:31:06.195Z,70.68
2023-04-21T06:33:36.190Z,70.94
2023-04-21T06:36:03.666Z,70.53
2023-04-21T06:38:30.790Z,70.36
2023-04-21T06:40:58.229Z,70.93
2023-04-21T06:43:25.678Z,71.04
2023-04-21T06:45:53.324Z,70.89
2023-04-21T06:48:20.844Z,70.93
2023-04-21T06:50:48.206Z,70.43
2023-04-21T06:53:15.817Z,70.21
2023-04-21T06:55:42.988Z,70.63
2023-04-21T06:58:10.498Z,70.18
2023-04-21T07:00:37.757Z,69.77
2023-04-21T07:03:05.193Z,69.48
2023-04-21T07:05:32.662Z,69.42
2023-04-21T07:08:00.063Z,69.37
2023-04-21T07:10:27.904Z,68.98
2023-04-21T07:12:56.216Z,68.70
2023-04-21T07:15:23.712Z,68.64
2023-04-21T07:17:51.031Z,68.57
2023-04-21T07:20:18.959Z,68.69
2023-04-21T07:22:46.356Z,69.23
2023-04-21T07:25:13.921Z,68.73
2023-04-21T07:27:41.256Z,68.49
2023-04-21T07:30:08.948Z,68.19
2023-04-21T07:32:38.846Z,68.41
2023-04-21T07:35:07.347Z,68.18
2023-04-21T07:37:34.704Z,68.00
2023-04-21T07:40:02.096Z,67.81
2023-04-21T07:42:31.546Z,67.74
2023-04-21T07:44:59.456Z,67.97
2023-04-21T07:47:26.825Z,68.15
2023-04-21T07:49:53.940Z,68.37
2023-04-21T07:52:21.234Z,68.33
2023-04-21T07:54:48.452Z,68.54
2023-04-21T07:57:15.640Z,68.38
2023-04-21T07:59:42.899Z,68.30
2023-04-21T08:02:10.460Z,67.59
2023-04-21T08:04:38.048Z,67.12
2023-04-21T08:07:05.510Z,66.75
2023-04-21T08:09:32.724Z,66.88
2023-04-21T08:11:59.925Z,66.36
2023-04-21T08:14:27.144Z,66.24
2023-04-21T08:16:56.919Z,65.89
2023-04-21T08:19:25.668Z,65.24
2023-04-21T08:21:52.997Z,65.53
2023-04-21T08:24:20.376Z,65.62
2023-04-21T08:26:48.766Z,65.61
2023-04-21T08:29:16.422Z,65.54
2023-04-21T08:31:43.645Z,65.46
2023-04-21T08:34:11.028Z,65.09
2023-04-21T08:36:38.176Z,64.71
2023-04-21T08:39:05.609Z,64.87
2023-04-21T08:41:32.800Z,64.77
2023-04-21T08:43:59.954Z,64.79
2023-04-21T08:46:28.762Z,64.68
2023-04-21T08:48:58.669Z,64.71
2023-04-21T08:51:28.457Z,64.55
2023-04-21T08:53:55.942Z,64.23
2023-04-21T08:56:26.595Z,64.37
2023-04-21T08:58:54.543Z,63.72
2023-04-21T09:01:21.850Z,64.02
2023-04-21T09:03:49.299Z,63.62
2023-04-21T09:06:17.162Z,63.05
2023-04-21T09:08:53.857Z,62.83
2023-04-21T09:11:21.465Z,62.36
2023-04-21T09:13:48.601Z,61.35
2023-04-21T09:16:22.217Z,61.39
2023-04-21T09:18:51.631Z,61.81
2023-04-21T09:21:20.532Z,61.50
2023-04-21T09:23:51.454Z,61.47
2023-04-21T09:26:20.223Z,61.36
2023-04-21T09:28:48.946Z,60.89
2023-04-21T09:31:29.384Z,59.89
2023-04-21T09:34:00.779Z,60.25
2023-04-21T09:36:31.282Z,60.67
2023-04-21T09:41:33.103Z,60.04
2023-04-21T09:44:01.739Z,60.18
2023-04-21T09:46:33.130Z,59.70
2023-04-21T09:49:04.764Z,59.94
2023-04-21T09:52:02.220Z,60.01
2023-04-21T09:54:29.583Z,59.37
2023-04-21T09:57:03.913Z,59.60
2023-04-21T09:59:38.086Z,59.92
2023-04-21T10:02:07.501Z,59.76
2023-04-21T10:04:37.508Z,60.04
2023-04-21T10:07:06.763Z,60.41
2023-04-21T10:09:40.638Z,60.10
2023-04-21T10:12:09.761Z,60.03
2023-04-21T10:14:37.331Z,60.40
2023-04-21T10:17:10.414Z,59.83
2023-04-21T10:19:47.743Z,60.20
2023-04-21T10:22:15.100Z,59.37
2023-04-21T10:24:43.434Z,59.95
2023-04-21T10:27:35.061Z,59.90
2023-04-21T10:30:19.221Z,60.10
2023-04-21T10:32:46.601Z,59.71
2023-04-21T10:35:23.907Z,58.80
2023-04-21T10:37:52.313Z,59.08
2023-04-21T10:40:43.806Z,59.00
2023-04-21T10:43:47.462Z,59.00
2023-04-21T10:46:38.662Z,59.26
2023-04-21T10:49:13.332Z,59.12
2023-04-21T10:52:03.453Z,57.59
2023-04-21T10:55:04.075Z,58.31
2023-04-21T10:57:36.860Z,58.41
2023-04-21T11:00:09.228Z,58.59
2023-04-21T11:02:39.144Z,58.65
2023-04-21T11:05:09.281Z,58.26
2023-04-21T11:07:36.516Z,58.27
2023-04-21T11:10:08.656Z,58.19
2023-04-21T11:12:38.529Z,57.73
2023-04-21T11:15:08.376Z,58.31
2023-04-21T11:17:38.408Z,58.22
2023-04-21T11:20:06.920Z,57.91
2023-04-21T11:22:34.339Z,57.67
2023-04-21T11:25:03.239Z,57.76
2023-04-21T11:27:32.142Z,57.55
2023-04-21T11:29:59.349Z,57.55
2023-04-21T11:32:26.724Z,57.53
2023-04-21T11:34:54.834Z,57.70
2023-04-21T11:37:28.182Z,57.70
2023-04-21T11:40:01.245Z,57.22
2023-04-21T11:42:31.421Z,57.36
2023-04-21T11:44:58.496Z,57.62
2023-04-21T11:47:27.136Z,57.25
2023-04-21T11:49:59.203Z,57.65
2023-04-21T11:52:33.460Z,58.05
2023-04-21T11:55:05.649Z,57.77
2023-04-21T11:57:34.242Z,57.69
2023-04-21T12:00:02.913Z,57.77
2023-04-21T12:02:35.613Z,57.91
2023-04-21T12:05:11.621Z,57.66
2023-04-21T12:07:42.645Z,57.67
2023-04-21T12:10:15.535Z,57.31
2023-04-21T12:12:44.311Z,57.54
2023-04-21T12:15:22.952Z,57.12
2023-04-21T12:17:54.588Z,57.51
2023-04-21T12:20:28.422Z,57.76
2023-04-21T12:22:57.021Z,57.43
2023-04-21T12:25:25.245Z,57.18
2023-04-21T12:27:54.311Z,56.79
2023-04-21T12:30:22.022Z,56.43
2023-04-21T12:32:49.778Z,56.51
2023-04-21T12:35:17.115Z,56.29
2023-04-21T12:37:45.453Z,56.24
2023-04-21T12:40:12.800Z,56.27
2023-04-21T12:42:40.060Z,56.20
2023-04-21T12:45:07.920Z,56.33
2023-04-21T12:47:37.107Z,56.29
2023-04-21T12:50:05.077Z,56.33
2023-04-21T12:52:33.472Z,56.14
2023-04-21T12:55:00.643Z,56.35
2023-04-21T12:57:27.772Z,56.60
2023-04-21T12:59:56.541Z,56.64
2023-04-21T13:02:23.929Z,56.82
2023-04-21T13:04:51.103Z,56.99
2023-04-21T13:07:21.425Z,57.00
2023-04-21T13:09:49.498Z,56.80
2023-04-21T13:12:17.438Z,56.64
2023-04-21T13:14:44.566Z,56.43
2023-04-21T13:17:11.816Z,56.58
2023-04-21T13:19:39.081Z,56.61
2023-04-21T13:22:06.291Z,56.34
2023-04-21T13:24:33.900Z,56.61
2023-04-21T13:27:04.516Z,56.23
2023-04-21T13:29:34.919Z,55.99
2023-04-21T13:32:03.880Z,56.36
2023-04-21T13:34:32.901Z,56.06
2023-04-21T13:37:01.641Z,56.01
2023-04-21T13:39:29.119Z,56.04
2023-04-21T13:41:58.366Z,55.93
2023-04-21T13:44:25.812Z,55.80
2023-04-21T13:46:54.108Z,55.57
2023-04-21T13:49:21.520Z,55.83
2023-04-21T13:51:48.755Z,56.02
2023-04-21T13:54:16.143Z,56.06
2023-04-21T13:56:43.518Z,56.02
2023-04-21T13:59:11.190Z,55.49
2023-04-21T14:01:38.594Z,56.26
2023-04-21T14:04:05.901Z,56.55
2023-04-21T14:06:33.391Z,56.26
2023-04-21T14:09:00.776Z,56.19
2023-04-21T14:11:28.299Z,56.14
2023-04-21T14:14:08.167Z,55.88
2023-04-21T14:16:36.716Z,55.78
2023-04-21T14:19:03.963Z,55.59
2023-04-21T14:21:32.533Z,55.70
2023-04-21T14:23:59.825Z,55.54
2023-04-21T14:26:27.053Z,55.26
2023-04-21T14:28:54.190Z,54.99
2023-04-21T14:31:22.207Z,54.87
2023-04-21T14:33:49.812Z,55.12
2023-04-21T14:36:17.033Z,55.29
2023-04-21T14:38:44.428Z,55.26
2023-04-21T14:41:13.018Z,55.03
2023-04-21T14:43:40.360Z,54.48
2023-04-21T14:46:07.767Z,54.63
2023-04-21T14:48:35.382Z,54.89
2023-04-21T14:51:02.700Z,54.65
2023-04-21T14:53:32.207Z,55.12
2023-04-21T14:55:59.496Z,55.09
2023-04-21T14:58:26.603Z,55.08
2023-04-21T15:00:54.276Z,55.05
2023-04-21T15:03:21.516Z,55.39
2023-04-21T15:05:49.123Z,55.72
2023-04-21T15:08:18.366Z,55.84
2023-04-21T15:10:45.821Z,56.25
2023-04-21T15:13:14.020Z,56.10
2023-04-21T15:15:41.664Z,56.24
2023-04-21T15:18:08.959Z,56.21
2023-04-21T15:20:44.482Z,56.39
2023-04-21T15:23:14.120Z,56.33
2023-04-21T15:25:41.698Z,56.19
2023-04-21T15:28:09.713Z,56.47
2023-04-21T15:30:37.136Z,56.64
2023-04-21T15:33:05.061Z,56.76
2023-04-21T15:35:32.342Z,56.90
2023-04-21T15:37:59.532Z,56.66
2023-04-21T15:40:27.685Z,56.80
2023-04-21T15:42:54.855Z,56.93
2023-04-21T15:45:22.159Z,57.17
2023-04-21T15:47:49.505Z,57.50
2023-04-21T15:50:16.942Z,57.47
2023-04-21T15:52:44.704Z,57.20
2023-04-21T15:55:12.511Z,57.42
2023-04-21T15:57:40.193Z,57.09
2023-04-21T16:00:10.438Z,57.42
2023-04-21T16:02:38.438Z,57.82
2023-04-21T16:05:06.343Z,57.61
2023-04-21T16:07:33.698Z,57.40
2023-04-21T16:10:01.218Z,57.30
2023-04-21T16:12:29.318Z,57.30
2023-04-21T16:15:04.042Z,57.42
2023-04-21T16:17:37.075Z,57.52
2023-04-21T16:20:05.588Z,58.06
2023-04-21T16:22:33.482Z,58.03
2023-04-21T16:25:01.884Z,58.09
2023-04-21T16:27:30.772Z,58.22
2023-04-21T16:29:58.135Z,58.55
2023-04-21T16:32:26.476Z,58.20
2023-04-21T16:34:54.844Z,57.74
2023-04-21T16:37:22.922Z,58.09
2023-04-21T16:39:50.305Z,58.00
2023-04-21T16:42:17.370Z,57.85
2023-04-21T16:44:44.733Z,58.37
2023-04-21T16:47:11.977Z,58.43
2023-04-21T16:49:39.105Z,58.52
2023-04-21T16:52:06.358Z,58.70
2023-04-21T16:54:33.382Z,59.04
2023-04-21T16:57:02.188Z,59.66
2023-04-21T16:59:30.807Z,59.64
2023-04-21T17:01:58.751Z,59.63
2023-04-21T17:04:25.965Z,59.23
2023-04-21T17:06:53.161Z,58.92
2023-04-21T17:09:20.331Z,59.11
2023-04-21T17:11:48.155Z,59.38
2023-04-21T17:14:15.303Z,59.71
2023-04-21T17:16:42.492Z,59.84
2023-04-21T17:19:09.846Z,59.94
2023-04-21T17:21:36.969Z,59.81
2023-04-21T17:24:04.280Z,60.23
2023-04-21T17:26:31.977Z,60.57
2023-04-21T17:28:59.592Z,60.45
2023-04-21T17:31:29.581Z,60.84
2023-04-21T17:33:57.520Z,61.64
2023-04-21T17:36:27.588Z,61.85
2023-04-21T17:38:58.772Z,62.33
2023-04-21T17:41:26.917Z,62.01
2023-04-21T17:43:57.088Z,61.38
2023-04-21T17:46:25.412Z,62.21
2023-04-21T17:48:52.811Z,62.04
2023-04-21T17:51:20.002Z,62.52
2023-04-21T17:53:47.267Z,62.76
2023-04-21T17:56:14.735Z,63.14
2023-04-21T17:58:42.479Z,62.66
2023-04-21T18:01:09.703Z,63.06
2023-04-21T18:03:37.315Z,63.74
2023-04-21T18:06:04.974Z,63.39
2023-04-21T18:08:32.117Z,63.37
2023-04-21T18:10:59.251Z,63.53
2023-04-21T18:13:27.480Z,63.72
2023-04-21T18:15:54.552Z,63.71
2023-04-21T18:18:21.893Z,63.89
2023-04-21T18:20:49.174Z,63.56
2023-04-21T18:23:16.358Z,62.87
2023-04-21T18:25:43.528Z,62.35
2023-04-21T18:28:16.542Z,62.22
2023-04-21T18:30:43.681Z,62.85
2023-04-21T18:33:11.768Z,62.52
2023-04-21T18:35:41.763Z,62.91
2023-04-21T18:38:11.625Z,63.38
2023-04-21T18:40:40.656Z,63.38
2023-04-21T18:43:08.265Z,64.12
2023-04-21T18:45:35.579Z,64.07
2023-04-21T18:48:02.846Z,63.57
2023-04-21T18:50:31.132Z,63.06
2023-04-21T18:52:58.668Z,63.16
2023-04-21T18:55:25.742Z,63.84
2023-04-21T18:57:52.924Z,63.64
2023-04-21T19:00:20.057Z,64.04
2023-04-21T19:02:49.063Z,64.61
2023-04-21T19:05:16.449Z,65.14
2023-04-21T19:07:43.866Z,65.42
2023-04-21T19:10:11.293Z,64.93
2023-04-21T19:12:39.739Z,63.99
2023-04-21T19:15:07.786Z,64.06
2023-04-21T19:17:35.817Z,64.57
2023-04-21T19:20:03.180Z,65.11
2023-04-21T19:22:36.140Z,64.72
2023-04-21T19:25:04.079Z,64.86
2023-04-21T19:27:31.939Z,65.69
2023-04-21T19:29:59.301Z,65.33
2023-04-21T19:32:27.047Z,66.11
2023-04-21T19:34:54.178Z,66.49
2023-04-21T19:37:21.606Z,66.53
2023-04-21T19:39:48.700Z,66.99
2023-04-21T19:42:15.958Z,66.47
2023-04-21T19:44:43.095Z,65.76
2023-04-21T19:47:10.937Z,65.62
2023-04-21T19:49:38.307Z,65.33
2023-04-21T19:52:06.815Z,64.97
2023-04-21T19:54:34.395Z,64.29
2023-04-21T19:57:01.874Z,64.03
2023-04-21T19:59:29.246Z,63.58
2023-04-21T20:01:57.017Z,64.68
2023-04-21T20:04:25.307Z,64.68
2023-04-21T20:06:52.962Z,64.41
2023-04-21T20:09:20.312Z,64.23
2023-04-21T20:11:47.693Z,64.21
2023-04-21T20:14:14.840Z,64.14
2023-04-21T20:16:43.133Z,64.02
2023-04-21T20:19:12.471Z,64.05
2023-04-21T20:21:39.628Z,63.77
2023-04-21T20:24:08.624Z,64.03
2023-04-21T20:26:37.361Z,64.96
2023-04-21T20:29:04.549Z,65.75
2023-04-21T20:31:32.006Z,65.81
2023-04-21T20:33:59.188Z,66.07
2023-04-21T20:36:27.570Z,66.22
2023-04-21T20:38:57.393Z,65.11
2023-04-21T20:41:24.668Z,65.76
2023-04-21T20:43:52.270Z,66.30
2023-04-21T20:46:19.511Z,66.34
2023-04-21T20:48:46.977Z,66.00
2023-04-21T20:51:14.128Z,65.88
2023-04-21T20:53:41.304Z,65.06
2023-04-21T20:56:08.730Z,64.56
2023-04-21T20:58:36.745Z,65.05
2023-04-21T21:01:03.984Z,64.55
2023-04-21T21:03:31.254Z,63.94
2023-04-21T21:05:58.716Z,64.26
2023-04-21T21:08:25.931Z,63.88
2023-04-21T21:10:53.078Z,63.93
2023-04-21T21:13:20.160Z,64.32
2023-04-21T21:15:47.372Z,64.22
2023-04-21T21:18:14.620Z,64.13
2023-04-21T21:20:42.009Z,63.74
2023-04-21T21:23:09.093Z,63.85
2023-04-21T21:25:36.429Z,63.52
2023-04-21T21:28:03.833Z,63.05
2023-04-21T21:30:30.940Z,63.04
2023-04-21T21:32:58.446Z,63.75
2023-04-21T21:35:25.605Z,63.74
2023-04-21T21:37:52.809Z,63.41
2023-04-21T21:40:20.081Z,63.22
2023-04-21T21:42:47.811Z,63.21
2023-04-21T21:45:15.035Z,63.55
2023-04-21T21:47:45.487Z,64.55
2023-04-21T21:50:13.431Z,64.02
2023-04-21T21:52:40.581Z,64.51
2023-04-21T21:55:08.692Z,64.80
2023-04-21T21:57:37.158Z,65.01
2023-04-21T22:00:08.327Z,64.41
2023-04-21T22:02:36.340Z,64.03
2023-04-21T22:05:06.412Z,63.78
2023-04-21T22:07:33.476Z,63.86
2023-04-21T22:10:00.586Z,64.65
2023-04-21T22:12:27.900Z,63.66
2023-04-21T22:14:55.145Z,63.27
2023-04-21T22:17:22.749Z,63.29
2023-04-21T22:19:50.077Z,63.25
2023-04-21T22:22:17.897Z,62.72
2023-04-21T22:24:44.958Z,63.10
2023-04-21T22:27:12.418Z,63.63
2023-04-21T22:29:39.828Z,63.75
2023-04-21T22:32:07.350Z,64.04
2023-04-21T22:34:34.632Z,63.76
2023-04-21T22:37:02.575Z,63.24
2023-04-21T22:39:30.098Z,63.31
2023-04-21T22:41:57.900Z,64.33
2023-04-21T22:44:25.211Z,63.97
2023-04-21T22:46:52.436Z,63.63
2023-04-21T22:49:19.757Z,63.52
2023-04-21T22:51:47.455Z,63.16
2023-04-21T22:54:15.463Z,64.01
2023-04-21T22:56:42.611Z,63.52
2023-04-21T22:59:10.125Z,63.12
2023-04-21T23:01:37.277Z,63.52
2023-04-21T23:04:04.543Z,63.51
2023-04-21T23:06:32.195Z,63.54
2023-04-21T23:08:59.261Z,64.24
2023-04-21T23:11:26.500Z,63.99
2023-04-21T23:13:53.939Z,64.07
2023-04-21T23:16:21.687Z,63.94
2023-04-21T23:18:48.802Z,64.08
2023-04-21T23:21:16.394Z,63.99
2023-04-21T23:23:43.531Z,63.70
2023-04-21T23:26:11.124Z,64.86
2023-04-21T23:28:38.420Z,65.14
2023-04-21T23:31:05.899Z,65.18
2023-04-21T23:33:33.138Z,64.60
2023-04-21T23:36:00.513Z,64.28
2023-04-21T23:38:27.849Z,64.23
2023-04-21T23:40:55.091Z,63.93
2023-04-21T23:43:22.304Z,63.50
2023-04-21T23:45:51.350Z,63.16
2023-04-21T23:48:18.700Z,62.90
2023-04-21T23:50:46.030Z,62.83
2023-04-21T23:53:13.162Z,62.39
2023-04-21T23:55:40.464Z,63.09
2023-04-21T23:58:07.915Z,62.65
